Terminal Aerodrome Forecast
Issued by NWS

Home | Current Version | Previous Version | Text Only | Print | Product List | Glossary On
Versions: 1 2 3 4 5 6 7 8 9 10 11 12 13 14
000
FTUS43 KSGF 301721
TAFJLN
TAF
KJLN 301721Z 3018/3118 VRB04KT P6SM SCT045 OVC200
     FM310100 07004KT P6SM SCT200
     FM310900 VRB03KT P6SM BKN250 PROB30 3109/3115 4SM TSRA OVC040CB
     FM311500 17007KT P6SM BKN200=

USA.gov is the U.S. government's official web portal to all federal, state and local government web resources and services.